sensor_id;sensor_type;location;lat;lon;timestamp;pressure;altitude;pressure_sealevel;temperature
71807;BMP280;59655;42.590;23.364;2023-02-10T00:01:14;92937.44;;;-6.10
71807;BMP280;59655;42.590;23.364;2023-02-10T00:03:40;92940.78;;;-6.17
71807;BMP280;59655;42.590;23.364;2023-02-10T00:06:07;92936.06;;;-6.22
71807;BMP280;59655;42.590;23.364;2023-02-10T00:08:33;92946.97;;;-6.03
71807;BMP280;59655;42.590;23.364;2023-02-10T00:11:00;92943.06;;;-5.77
71807;BMP280;59655;42.590;23.364;2023-02-10T00:13:27;92937.84;;;-5.73
71807;BMP280;59655;42.590;23.364;2023-02-10T00:15:53;92942.13;;;-5.60
71807;BMP280;59655;42.590;23.364;2023-02-10T00:18:20;92945.34;;;-5.48
71807;BMP280;59655;42.590;23.364;2023-02-10T00:20:45;92936.63;;;-5.62
71807;BMP280;59655;42.590;23.364;2023-02-10T00:23:11;92938.22;;;-5.75
71807;BMP280;59655;42.590;23.364;2023-02-10T00:25:36;92943.22;;;-5.95
71807;BMP280;59655;42.590;23.364;2023-02-10T00:28:02;92942.31;;;-6.19
71807;BMP280;59655;42.590;23.364;2023-02-10T00:30:28;92931.28;;;-6.23
71807;BMP280;59655;42.590;23.364;2023-02-10T00:32:53;92930.53;;;-6.20
71807;BMP280;59655;42.590;23.364;2023-02-10T00:35:19;92933.50;;;-6.25
71807;BMP280;59655;42.590;23.364;2023-02-10T00:37:44;92932.75;;;-6.22
71807;BMP280;59655;42.590;23.364;2023-02-10T00:40:10;92933.84;;;-6.20
71807;BMP280;59655;42.590;23.364;2023-02-10T00:42:35;92925.06;;;-6.29
71807;BMP280;59655;42.590;23.364;2023-02-10T00:45:01;92923.66;;;-6.41
71807;BMP280;59655;42.590;23.364;2023-02-10T00:47:26;92922.28;;;-6.53
71807;BMP280;59655;42.590;23.364;2023-02-10T00:49:52;92913.09;;;-6.58
71807;BMP280;59655;42.590;23.364;2023-02-10T00:52:18;92912.41;;;-6.62
71807;BMP280;59655;42.590;23.364;2023-02-10T00:54:43;92919.41;;;-6.62
71807;BMP280;59655;42.590;23.364;2023-02-10T00:57:08;92903.13;;;-6.52
71807;BMP280;59655;42.590;23.364;2023-02-10T00:59:34;92902.00;;;-6.55
71807;BMP280;59655;42.590;23.364;2023-02-10T01:01:59;92909.09;;;-6.66
71807;BMP280;59655;42.590;23.364;2023-02-10T01:04:25;92906.13;;;-6.61
71807;BMP280;59655;42.590;23.364;2023-02-10T01:06:50;92904.31;;;-6.64
71807;BMP280;59655;42.590;23.364;2023-02-10T01:09:16;92902.19;;;-6.76
71807;BMP280;59655;42.590;23.364;2023-02-10T01:11:43;92908.09;;;-6.83
71807;BMP280;59655;42.590;23.364;2023-02-10T01:14:09;92898.38;;;-6.61
71807;BMP280;59655;42.590;23.364;2023-02-10T01:16:35;92896.22;;;-6.69
71807;BMP280;59655;42.590;23.364;2023-02-10T01:19:01;92900.28;;;-6.65
71807;BMP280;59655;42.590;23.364;2023-02-10T01:21:27;92890.31;;;-6.63
71807;BMP280;59655;42.590;23.364;2023-02-10T01:23:53;92892.34;;;-6.43
71807;BMP280;59655;42.590;23.364;2023-02-10T01:26:18;92884.94;;;-6.38
71807;BMP280;59655;42.590;23.364;2023-02-10T01:28:44;92881.56;;;-6.31
71807;BMP280;59655;42.590;23.364;2023-02-10T01:31:13;92884.81;;;-6.27
71807;BMP280;59655;42.590;23.364;2023-02-10T01:33:39;92881.13;;;-6.22
71807;BMP280;59655;42.590;23.364;2023-02-10T01:36:06;92880.94;;;-6.46
71807;BMP280;59655;42.590;23.364;2023-02-10T01:38:32;92886.06;;;-6.42
71807;BMP280;59655;42.590;23.364;2023-02-10T01:40:57;92879.13;;;-6.53
71807;BMP280;59655;42.590;23.364;2023-02-10T01:43:22;92875.03;;;-6.46
71807;BMP280;59655;42.590;23.364;2023-02-10T01:45:48;92882.22;;;-6.65
71807;BMP280;59655;42.590;23.364;2023-02-10T01:48:13;92875.59;;;-6.69
71807;BMP280;59655;42.590;23.364;2023-02-10T01:50:45;92886.31;;;-6.75
71807;BMP280;59655;42.590;23.364;2023-02-10T01:53:13;92876.81;;;-6.88
71807;BMP280;59655;42.590;23.364;2023-02-10T01:55:43;92878.31;;;-6.91
71807;BMP280;59655;42.590;23.364;2023-02-10T01:58:11;92869.88;;;-6.92
71807;BMP280;59655;42.590;23.364;2023-02-10T02:00:38;92863.13;;;-6.78
71807;BMP280;59655;42.590;23.364;2023-02-10T02:03:04;92854.19;;;-6.66
71807;BMP280;59655;42.590;23.364;2023-02-10T02:05:35;92853.06;;;-6.65
71807;BMP280;59655;42.590;23.364;2023-02-10T02:08:22;92854.38;;;-6.88
71807;BMP280;59655;42.590;23.364;2023-02-10T02:10:57;92851.09;;;-6.96
71807;BMP280;59655;42.590;23.364;2023-02-10T02:16:10;92841.56;;;-7.02
71807;BMP280;59655;42.590;23.364;2023-02-10T02:19:16;92840.00;;;-6.93
71807;BMP280;59655;42.590;23.364;2023-02-10T02:25:09;92822.47;;;-7.12
71807;BMP280;59655;42.590;23.364;2023-02-10T02:28:01;92830.56;;;-7.14
71807;BMP280;59655;42.590;23.364;2023-02-10T02:31:09;92815.06;;;-7.10
71807;BMP280;59655;42.590;23.364;2023-02-10T02:33:40;92822.47;;;-7.12
71807;BMP280;59655;42.590;23.364;2023-02-10T02:36:17;92823.06;;;-6.94
71807;BMP280;59655;42.590;23.364;2023-02-10T02:38:43;92821.13;;;-6.82
71807;BMP280;59655;42.590;23.364;2023-02-10T02:41:09;92814.81;;;-6.74
71807;BMP280;59655;42.590;23.364;2023-02-10T02:43:36;92817.72;;;-6.68
71807;BMP280;59655;42.590;23.364;2023-02-10T02:46:10;92813.28;;;-6.64
71807;BMP280;59655;42.590;23.364;2023-02-10T02:48:56;92809.97;;;-6.68
71807;BMP280;59655;42.590;23.364;2023-02-10T02:51:42;92811.34;;;-6.57
71807;BMP280;59655;42.590;23.364;2023-02-10T02:54:21;92809.56;;;-6.63
71807;BMP280;59655;42.590;23.364;2023-02-10T02:57:07;92814.09;;;-6.78
71807;BMP280;59655;42.590;23.364;2023-02-10T02:59:40;92814.38;;;-6.69
71807;BMP280;59655;42.590;23.364;2023-02-10T03:02:12;92821.81;;;-6.75
71807;BMP280;59655;42.590;23.364;2023-02-10T03:04:39;92814.72;;;-6.67
71807;BMP280;59655;42.590;23.364;2023-02-10T03:07:05;92810.72;;;-6.68
71807;BMP280;59655;42.590;23.364;2023-02-10T03:09:31;92806.41;;;-6.82
71807;BMP280;59655;42.590;23.364;2023-02-10T03:11:57;92802.97;;;-6.68
71807;BMP280;59655;42.590;23.364;2023-02-10T03:14:23;92802.81;;;-6.54
71807;BMP280;59655;42.590;23.364;2023-02-10T03:16:48;92803.06;;;-6.82
71807;BMP280;59655;42.590;23.364;2023-02-10T03:19:14;92800.31;;;-7.02
71807;BMP280;59655;42.590;23.364;2023-02-10T03:21:39;92810.47;;;-6.84
71807;BMP280;59655;42.590;23.364;2023-02-10T03:24:05;92816.31;;;-6.77
71807;BMP280;59655;42.590;23.364;2023-02-10T03:26:30;92813.72;;;-6.77
71807;BMP280;59655;42.590;23.364;2023-02-10T03:28:56;92813.75;;;-6.80
71807;BMP280;59655;42.590;23.364;2023-02-10T03:31:22;92811.75;;;-7.03
71807;BMP280;59655;42.590;23.364;2023-02-10T03:33:48;92809.50;;;-7.01
71807;BMP280;59655;42.590;23.364;2023-02-10T03:36:13;92805.41;;;-6.95
71807;BMP280;59655;42.590;23.364;2023-02-10T03:38:39;92803.03;;;-6.75
71807;BMP280;59655;42.590;23.364;2023-02-10T03:41:04;92807.81;;;-6.74
71807;BMP280;59655;42.590;23.364;2023-02-10T03:43:30;92795.34;;;-6.82
71807;BMP280;59655;42.590;23.364;2023-02-10T03:45:59;92799.91;;;-6.52
71807;BMP280;59655;42.590;23.364;2023-02-10T03:48:25;92787.97;;;-6.42
71807;BMP280;59655;42.590;23.364;2023-02-10T03:50:56;92793.97;;;-6.49
71807;BMP280;59655;42.590;23.364;2023-02-10T03:53:21;92789.88;;;-6.46
71807;BMP280;59655;42.590;23.364;2023-02-10T03:55:47;92795.50;;;-6.55
71807;BMP280;59655;42.590;23.364;2023-02-10T03:58:12;92792.50;;;-6.54
71807;BMP280;59655;42.590;23.364;2023-02-10T04:00:38;92791.50;;;-6.67
71807;BMP280;59655;42.590;23.364;2023-02-10T04:03:03;92794.16;;;-6.70
71807;BMP280;59655;42.590;23.364;2023-02-10T04:05:28;92793.91;;;-6.87
71807;BMP280;59655;42.590;23.364;2023-02-10T04:07:54;92796.53;;;-6.91
71807;BMP280;59655;42.590;23.364;2023-02-10T04:10:19;92787.25;;;-6.84
71807;BMP280;59655;42.590;23.364;2023-02-10T04:12:46;92791.44;;;-6.98
71807;BMP280;59655;42.590;23.364;2023-02-10T04:15:11;92784.09;;;-7.06
71807;BMP280;59655;42.590;23.364;2023-02-10T04:17:36;92787.78;;;-7.04
71807;BMP280;59655;42.590;23.364;2023-02-10T04:20:02;92776.66;;;-6.94
71807;BMP280;59655;42.590;23.364;2023-02-10T04:22:28;92785.34;;;-7.29
71807;BMP280;59655;42.590;23.364;2023-02-10T04:24:53;92789.06;;;-7.30
71807;BMP280;59655;42.590;23.364;2023-02-10T04:27:18;92784.69;;;-7.37
71807;BMP280;59655;42.590;23.364;2023-02-10T04:29:44;92786.97;;;-7.46
71807;BMP280;59655;42.590;23.364;2023-02-10T04:32:09;92775.19;;;-7.54
71807;BMP280;59655;42.590;23.364;2023-02-10T04:34:35;92779.88;;;-7.35
71807;BMP280;59655;42.590;23.364;2023-02-10T04:37:00;92784.16;;;-7.14
71807;BMP280;59655;42.590;23.364;2023-02-10T04:39:26;92785.97;;;-7.03
71807;BMP280;59655;42.590;23.364;2023-02-10T04:41:51;92776.91;;;-7.26
71807;BMP280;59655;42.590;23.364;2023-02-10T04:44:17;92784.94;;;-7.17
71807;BMP280;59655;42.590;23.364;2023-02-10T04:46:42;92789.72;;;-7.19
71807;BMP280;59655;42.590;23.364;2023-02-10T04:49:08;92788.72;;;-7.29
71807;BMP280;59655;42.590;23.364;2023-02-10T04:51:33;92792.41;;;-7.37
71807;BMP280;59655;42.590;23.364;2023-02-10T04:53:59;92805.03;;;-7.50
71807;BMP280;59655;42.590;23.364;2023-02-10T04:56:24;92796.47;;;-7.36
71807;BMP280;59655;42.590;23.364;2023-02-10T04:58:49;92792.06;;;-7.39
71807;BMP280;59655;42.590;23.364;2023-02-10T05:01:15;92793.63;;;-7.56
71807;BMP280;59655;42.590;23.364;2023-02-10T05:03:40;92795.16;;;-7.69
71807;BMP280;59655;42.590;23.364;2023-02-10T05:06:12;92791.81;;;-7.66
71807;BMP280;59655;42.590;23.364;2023-02-10T05:08:38;92800.25;;;-7.51
71807;BMP280;59655;42.590;23.364;2023-02-10T05:11:11;92795.00;;;-7.40
71807;BMP280;59655;42.590;23.364;2023-02-10T05:13:37;92803.84;;;-7.41
71807;BMP280;59655;42.590;23.364;2023-02-10T05:16:03;92806.00;;;-7.33
71807;BMP280;59655;42.590;23.364;2023-02-10T05:18:30;92807.81;;;-7.30
71807;BMP280;59655;42.590;23.364;2023-02-10T05:20:56;92804.22;;;-7.43
71807;BMP280;59655;42.590;23.364;2023-02-10T05:23:21;92809.38;;;-7.39
71807;BMP280;59655;42.590;23.364;2023-02-10T05:25:47;92818.31;;;-7.62
71807;BMP280;59655;42.590;23.364;2023-02-10T05:28:12;92812.47;;;-7.77
71807;BMP280;59655;42.590;23.364;2023-02-10T05:30:38;92822.03;;;-7.74
71807;BMP280;59655;42.590;23.364;2023-02-10T05:33:03;92833.03;;;-7.62
71807;BMP280;59655;42.590;23.364;2023-02-10T05:35:29;92833.03;;;-7.66
71807;BMP280;59655;42.590;23.364;2023-02-10T05:37:54;92838.19;;;-7.66
71807;BMP280;59655;42.590;23.364;2023-02-10T05:40:19;92844.75;;;-7.54
71807;BMP280;59655;42.590;23.364;2023-02-10T05:42:45;92846.97;;;-7.56
71807;BMP280;59655;42.590;23.364;2023-02-10T05:45:10;92845.88;;;-7.55
71807;BMP280;59655;42.590;23.364;2023-02-10T05:47:36;92844.63;;;-7.25
71807;BMP280;59655;42.590;23.364;2023-02-10T05:50:01;92843.75;;;-7.01
71807;BMP280;59655;42.590;23.364;2023-02-10T05:52:27;92839.25;;;-6.89
71807;BMP280;59655;42.590;23.364;2023-02-10T05:54:52;92845.50;;;-6.87
71807;BMP280;59655;42.590;23.364;2023-02-10T05:57:17;92845.09;;;-6.82
71807;BMP280;59655;42.590;23.364;2023-02-10T05:59:43;92853.56;;;-6.78
71807;BMP280;59655;42.590;23.364;2023-02-10T06:02:08;92848.38;;;-6.74
71807;BMP280;59655;42.590;23.364;2023-02-10T06:04:34;92853.16;;;-6.73
71807;BMP280;59655;42.590;23.364;2023-02-10T06:06:59;92858.72;;;-6.78
71807;BMP280;59655;42.590;23.364;2023-02-10T06:09:24;92856.09;;;-6.74
71807;BMP280;59655;42.590;23.364;2023-02-10T06:11:51;92865.66;;;-6.75
71807;BMP280;59655;42.590;23.364;2023-02-10T06:14:17;92869.34;;;-6.72
71807;BMP280;59655;42.590;23.364;2023-02-10T06:16:43;92866.72;;;-6.65
71807;BMP280;59655;42.590;23.364;2023-02-10T06:19:08;92873.72;;;-6.69
71807;BMP280;59655;42.590;23.364;2023-02-10T06:21:33;92878.59;;;-6.78
71807;BMP280;59655;42.590;23.364;2023-02-10T06:23:59;92875.63;;;-6.77
71807;BMP280;59655;42.590;23.364;2023-02-10T06:26:24;92887.09;;;-6.78
71807;BMP280;59655;42.590;23.364;2023-02-10T06:28:51;92882.59;;;-6.70
71807;BMP280;59655;42.590;23.364;2023-02-10T06:31:17;92886.63;;;-6.69
71807;BMP280;59655;42.590;23.364;2023-02-10T06:33:42;92888.53;;;-6.77
71807;BMP280;59655;42.590;23.364;2023-02-10T06:36:08;92880.75;;;-6.69
71807;BMP280;59655;42.590;23.364;2023-02-10T06:38:35;92878.13;;;-6.66
71807;BMP280;59655;42.590;23.364;2023-02-10T06:41:02;92883.22;;;-6.55
71807;BMP280;59655;42.590;23.364;2023-02-10T06:43:27;92885.03;;;-6.48
71807;BMP280;59655;42.590;23.364;2023-02-10T06:45:53;92876.91;;;-6.47
71807;BMP280;59655;42.590;23.364;2023-02-10T06:48:18;92885.34;;;-6.43
71807;BMP280;59655;42.590;23.364;2023-02-10T06:50:44;92889.75;;;-6.40
71807;BMP280;59655;42.590;23.364;2023-02-10T06:53:09;92885.28;;;-6.36
71807;BMP280;59655;42.590;23.364;2023-02-10T06:55:34;92898.19;;;-6.36
71807;BMP280;59655;42.590;23.364;2023-02-10T06:58:01;92904.09;;;-6.35
71807;BMP280;59655;42.590;23.364;2023-02-10T07:00:27;92901.13;;;-6.33
71807;BMP280;59655;42.590;23.364;2023-02-10T07:02:52;92911.41;;;-6.30
71807;BMP280;59655;42.590;23.364;2023-02-10T07:05:18;92911.75;;;-6.24
71807;BMP280;59655;42.590;23.364;2023-02-10T07:07:44;92902.50;;;-6.22
71807;BMP280;59655;42.590;23.364;2023-02-10T07:10:09;92906.50;;;-6.17
71807;BMP280;59655;42.590;23.364;2023-02-10T07:12:35;92896.19;;;-6.17
71807;BMP280;59655;42.590;23.364;2023-02-10T07:15:01;92902.44;;;-6.14
71807;BMP280;59655;42.590;23.364;2023-02-10T07:17:26;92903.13;;;-6.10
71807;BMP280;59655;42.590;23.364;2023-02-10T07:19:52;92903.84;;;-6.06
71807;BMP280;59655;42.590;23.364;2023-02-10T07:22:17;92898.69;;;-6.06
71807;BMP280;59655;42.590;23.364;2023-02-10T07:24:42;92900.47;;;-6.03
71807;BMP280;59655;42.590;23.364;2023-02-10T07:27:08;92899.00;;;-6.01
71807;BMP280;59655;42.590;23.364;2023-02-10T07:29:33;92892.66;;;-5.96
71807;BMP280;59655;42.590;23.364;2023-02-10T07:31:59;92893.38;;;-5.92
71807;BMP280;59655;42.590;23.364;2023-02-10T07:34:26;92893.72;;;-5.90
71807;BMP280;59655;42.590;23.364;2023-02-10T07:36:52;92891.88;;;-5.89
71807;BMP280;59655;42.590;23.364;2023-02-10T07:39:21;92891.09;;;-5.86
71807;BMP280;59655;42.590;23.364;2023-02-10T07:41:47;92888.44;;;-5.79
71807;BMP280;59655;42.590;23.364;2023-02-10T07:44:12;92893.56;;;-5.75
71807;BMP280;59655;42.590;23.364;2023-02-10T07:46:39;92886.50;;;-5.71
71807;BMP280;59655;42.590;23.364;2023-02-10T07:49:04;92892.34;;;-5.67
71807;BMP280;59655;42.590;23.364;2023-02-10T07:51:30;92889.03;;;-5.64
71807;BMP280;59655;42.590;23.364;2023-02-10T07:53:55;92889.03;;;-5.64
71807;BMP280;59655;42.590;23.364;2023-02-10T07:56:21;92886.38;;;-5.61
71807;BMP280;59655;42.590;23.364;2023-02-10T07:58:46;92886.75;;;-5.58
71807;BMP280;59655;42.590;23.364;2023-02-10T08:01:11;92891.50;;;-5.57
71807;BMP280;59655;42.590;23.364;2023-02-10T08:03:37;92898.50;;;-5.54
71807;BMP280;59655;42.590;23.364;2023-02-10T08:06:04;92904.38;;;-5.53
71807;BMP280;59655;42.590;23.364;2023-02-10T08:08:29;92904.38;;;-5.53
71807;BMP280;59655;42.590;23.364;2023-02-10T08:10:55;92904.38;;;-5.53
71807;BMP280;59655;42.590;23.364;2023-02-10T08:13:21;92905.06;;;-5.49
71807;BMP280;59655;42.590;23.364;2023-02-10T08:15:46;92906.91;;;-5.46
71807;BMP280;59655;42.590;23.364;2023-02-10T08:18:12;92899.88;;;-5.46
71807;BMP280;59655;42.590;23.364;2023-02-10T08:20:37;92893.59;;;-5.45
71807;BMP280;59655;42.590;23.364;2023-02-10T08:23:03;92906.88;;;-5.43
71807;BMP280;59655;42.590;23.364;2023-02-10T08:25:28;92899.78;;;-5.38
71807;BMP280;59655;42.590;23.364;2023-02-10T08:27:54;92907.16;;;-5.37
71807;BMP280;59655;42.590;23.364;2023-02-10T08:30:19;92906.41;;;-5.37
71807;BMP280;59655;42.590;23.364;2023-02-10T08:32:45;92895.31;;;-5.34
71807;BMP280;59655;42.590;23.364;2023-02-10T08:35:10;92912.25;;;-5.30
71807;BMP280;59655;42.590;23.364;2023-02-10T08:37:36;92914.44;;;-5.28
71807;BMP280;59655;42.590;23.364;2023-02-10T08:40:03;92904.44;;;-5.26
71807;BMP280;59655;42.590;23.364;2023-02-10T08:42:31;92899.59;;;-5.24
71807;BMP280;59655;42.590;23.364;2023-02-10T08:44:57;92911.78;;;-5.21
71807;BMP280;59655;42.590;23.364;2023-02-10T08:47:22;92909.13;;;-5.17
71807;BMP280;59655;42.590;23.364;2023-02-10T08:49:48;92907.63;;;-5.15
71807;BMP280;59655;42.590;23.364;2023-02-10T08:52:13;92911.28;;;-5.12
71807;BMP280;59655;42.590;23.364;2023-02-10T08:54:38;92904.97;;;-5.08
71807;BMP280;59655;42.590;23.364;2023-02-10T08:57:04;92908.28;;;-5.07
71807;BMP280;59655;42.590;23.364;2023-02-10T08:59:29;92908.16;;;-5.00
71807;BMP280;59655;42.590;23.364;2023-02-10T09:01:55;92913.72;;;-5.02
71807;BMP280;59655;42.590;23.364;2023-02-10T09:04:21;92903.31;;;-4.94
71807;BMP280;59655;42.590;23.364;2023-02-10T09:06:47;92905.91;;;-4.94
71807;BMP280;59655;42.590;23.364;2023-02-10T09:09:14;92900.34;;;-4.93
71807;BMP280;59655;42.590;23.364;2023-02-10T09:11:41;92902.84;;;-4.89
71807;BMP280;59655;42.590;23.364;2023-02-10T09:14:07;92900.22;;;-4.86
71807;BMP280;59655;42.590;23.364;2023-02-10T09:16:33;92898.28;;;-4.81
71807;BMP280;59655;42.590;23.364;2023-02-10T09:18:58;92907.88;;;-4.78
71807;BMP280;59655;42.590;23.364;2023-02-10T09:21:24;92903.06;;;-4.76
71807;BMP280;59655;42.590;23.364;2023-02-10T09:23:50;92899.69;;;-4.73
71807;BMP280;59655;42.590;23.364;2023-02-10T09:26:16;92901.81;;;-4.68
71807;BMP280;59655;42.590;23.364;2023-02-10T09:28:41;92896.63;;;-4.68
71807;BMP280;59655;42.590;23.364;2023-02-10T09:31:08;92901.03;;;-4.65
71807;BMP280;59655;42.590;23.364;2023-02-10T09:33:34;92898.03;;;-4.63
71807;BMP280;59655;42.590;23.364;2023-02-10T09:36:05;92894.69;;;-4.60
71807;BMP280;59655;42.590;23.364;2023-02-10T09:38:32;92896.50;;;-4.57
71807;BMP280;59655;42.590;23.364;2023-02-10T09:54:48;92889.84;;;-4.35
71807;BMP280;59655;42.590;23.364;2023-02-10T09:57:29;92885.00;;;-4.33
71807;BMP280;59655;42.590;23.364;2023-02-10T09:59:58;92886.31;;;-4.24
71807;BMP280;59655;42.590;23.364;2023-02-10T10:04:56;92880.34;;;-4.21
71807;BMP280;59655;42.590;23.364;2023-02-10T10:07:34;92883.63;;;-4.17
71807;BMP280;59655;42.590;23.364;2023-02-10T10:10:07;92879.13;;;-4.13
71807;BMP280;59655;42.590;23.364;2023-02-10T10:12:38;92876.53;;;-4.13
71807;BMP280;59655;42.590;23.364;2023-02-10T10:15:04;92867.22;;;-4.11
71807;BMP280;59655;42.590;23.364;2023-02-10T10:31:13;92856.41;;;-3.85
71807;BMP280;59655;42.590;23.364;2023-02-10T10:36:31;92856.66;;;-3.80
71807;BMP280;59655;42.590;23.364;2023-02-10T10:39:00;92844.31;;;-3.72
71807;BMP280;59655;42.590;23.364;2023-02-10T10:41:30;92855.31;;;-3.68
71807;BMP280;59655;42.590;23.364;2023-02-10T10:43:57;92847.00;;;-3.59
71807;BMP280;59655;42.590;23.364;2023-02-10T10:46:49;92853.25;;;-3.57
71807;BMP280;59655;42.590;23.364;2023-02-10T10:49:15;92854.28;;;-3.54
71807;BMP280;59655;42.590;23.364;2023-02-10T10:51:41;92856.50;;;-3.53
71807;BMP280;59655;42.590;23.364;2023-02-10T10:54:12;92843.47;;;-3.49
71807;BMP280;59655;42.590;23.364;2023-02-10T10:59:27;92844.84;;;-3.44
71807;BMP280;59655;42.590;23.364;2023-02-10T11:01:53;92836.66;;;-3.43
71807;BMP280;59655;42.590;23.364;2023-02-10T11:04:21;92841.38;;;-3.38
71807;BMP280;59655;42.590;23.364;2023-02-10T11:06:51;92830.59;;;-3.36
71807;BMP280;59655;42.590;23.364;2023-02-10T11:11:49;92823.88;;;-3.34
71807;BMP280;59655;42.590;23.364;2023-02-10T11:14:21;92826.06;;;-3.32
71807;BMP280;59655;42.590;23.364;2023-02-10T11:16:53;92823.03;;;-3.31
71807;BMP280;59655;42.590;23.364;2023-02-10T11:19:21;92821.47;;;-3.24
71807;BMP280;59655;42.590;23.364;2023-02-10T11:21:47;92822.13;;;-3.20
71807;BMP280;59655;42.590;23.364;2023-02-10T11:24:27;92821.28;;;-3.17
71807;BMP280;59655;42.590;23.364;2023-02-10T11:27:05;92826.63;;;-3.08
71807;BMP280;59655;42.590;23.364;2023-02-10T11:29:33;92810.06;;;-2.98
71807;BMP280;59655;42.590;23.364;2023-02-10T11:31:59;92806.63;;;-2.91
71807;BMP280;59655;42.590;23.364;2023-02-10T11:36:51;92799.47;;;-2.87
71807;BMP280;59655;42.590;23.364;2023-02-10T11:39:33;92806.44;;;-2.84
71807;BMP280;59655;42.590;23.364;2023-02-10T11:42:19;92805.34;;;-2.70
71807;BMP280;59655;42.590;23.364;2023-02-10T11:45:00;92809.41;;;-2.69
71807;BMP280;59655;42.590;23.364;2023-02-10T11:47:28;92808.94;;;-2.64
71807;BMP280;59655;42.590;23.364;2023-02-10T11:49:53;92808.13;;;-2.61
71807;BMP280;59655;42.590;23.364;2023-02-10T11:52:22;92804.28;;;-2.56
71807;BMP280;59655;42.590;23.364;2023-02-10T11:54:49;92797.31;;;-2.59
71807;BMP280;59655;42.590;23.364;2023-02-10T12:00:14;92791.84;;;-2.48
71807;BMP280;59655;42.590;23.364;2023-02-10T12:05:31;92798.22;;;-2.37
71807;BMP280;59655;42.590;23.364;2023-02-10T12:10:49;92783.19;;;-2.29
71807;BMP280;59655;42.590;23.364;2023-02-10T12:16:42;92777.50;;;-2.24
71807;BMP280;59655;42.590;23.364;2023-02-10T12:22:41;92776.88;;;-2.15
71807;BMP280;59655;42.590;23.364;2023-02-10T12:25:25;92778.56;;;-2.08
71807;BMP280;59655;42.590;23.364;2023-02-10T12:38:56;92761.09;;;-1.82
71807;BMP280;59655;42.590;23.364;2023-02-10T12:50:10;92763.91;;;-1.64
71807;BMP280;59655;42.590;23.364;2023-02-10T12:52:45;92761.94;;;-1.60
71807;BMP280;59655;42.590;23.364;2023-02-10T12:55:19;92770.34;;;-1.55
71807;BMP280;59655;42.590;23.364;2023-02-10T12:57:49;92769.09;;;-1.51
71807;BMP280;59655;42.590;23.364;2023-02-10T13:03:17;92770.97;;;-1.39
71807;BMP280;59655;42.590;23.364;2023-02-10T13:05:54;92766.72;;;-1.32
71807;BMP280;59655;42.590;23.364;2023-02-10T13:08:30;92764.91;;;-1.23
71807;BMP280;59655;42.590;23.364;2023-02-10T13:11:07;92768.66;;;-1.24
71807;BMP280;59655;42.590;23.364;2023-02-10T13:13:36;92772.94;;;-1.17
71807;BMP280;59655;42.590;23.364;2023-02-10T13:16:23;92775.72;;;-1.11
71807;BMP280;59655;42.590;23.364;2023-02-10T13:21:26;92776.53;;;-1.02
71807;BMP280;59655;42.590;23.364;2023-02-10T13:26:54;92770.66;;;-0.93
71807;BMP280;59655;42.590;23.364;2023-02-10T13:29:42;92770.03;;;-0.84
71807;BMP280;59655;42.590;23.364;2023-02-10T13:32:27;92769.50;;;-0.79
71807;BMP280;59655;42.590;23.364;2023-02-10T13:34:58;92766.94;;;-0.70
71807;BMP280;59655;42.590;23.364;2023-02-10T13:37:43;92766.28;;;-0.61
71807;BMP280;59655;42.590;23.364;2023-02-10T13:40:26;92766.59;;;-0.59
71807;BMP280;59655;42.590;23.364;2023-02-10T13:42:55;92758.25;;;-0.45
71807;BMP280;59655;42.590;23.364;2023-02-10T13:45:24;92767.56;;;-0.44
71807;BMP280;59655;42.590;23.364;2023-02-10T13:47:54;92765.25;;;-0.42
71807;BMP280;59655;42.590;23.364;2023-02-10T13:51:05;92766.16;;;-0.35
71807;BMP280;59655;42.590;23.364;2023-02-10T13:53:27;92772.88;;;-0.25
71807;BMP280;59655;42.590;23.364;2023-02-10T13:56:24;92767.72;;;-0.16
71807;BMP280;59655;42.590;23.364;2023-02-10T14:04:40;92776.56;;;0.09
71807;BMP280;59655;42.590;23.364;2023-02-10T14:10:01;92774.44;;;0.26
71807;BMP280;59655;42.590;23.364;2023-02-10T14:12:28;92776.78;;;0.24
71807;BMP280;59655;42.590;23.364;2023-02-10T14:14:54;92779.09;;;0.31
71807;BMP280;59655;42.590;23.364;2023-02-10T14:17:26;92782.00;;;0.33
71807;BMP280;59655;42.590;23.364;2023-02-10T14:19:58;92776.19;;;0.38
71807;BMP280;59655;42.590;23.364;2023-02-10T14:22:33;92772.16;;;0.46
71807;BMP280;59655;42.590;23.364;2023-02-10T14:25:18;92772.63;;;0.45
71807;BMP280;59655;42.590;23.364;2023-02-10T14:27:48;92777.38;;;0.37
71807;BMP280;59655;42.590;23.364;2023-02-10T14:30:34;92770.00;;;0.45
71807;BMP280;59655;42.590;23.364;2023-02-10T14:33:02;92773.50;;;0.51
71807;BMP280;59655;42.590;23.364;2023-02-10T14:35:27;92778.38;;;0.30
71807;BMP280;59655;42.590;23.364;2023-02-10T14:37:56;92778.66;;;0.32
71807;BMP280;59655;42.590;23.364;2023-02-10T14:40:24;92772.72;;;0.32
71807;BMP280;59655;42.590;23.364;2023-02-10T14:42:50;92771.25;;;0.31
71807;BMP280;59655;42.590;23.364;2023-02-10T14:45:24;92773.00;;;0.34
71807;BMP280;59655;42.590;23.364;2023-02-10T14:47:52;92769.41;;;0.31
71807;BMP280;59655;42.590;23.364;2023-02-10T14:50:33;92769.63;;;0.15
71807;BMP280;59655;42.590;23.364;2023-02-10T14:53:00;92761.19;;;0.11
71807;BMP280;59655;42.590;23.364;2023-02-10T14:57:52;92772.19;;;0.06
71807;BMP280;59655;42.590;23.364;2023-02-10T15:00:17;92768.25;;;0.01
71807;BMP280;59655;42.590;23.364;2023-02-10T15:02:57;92762.75;;;-0.01
71807;BMP280;59655;42.590;23.364;2023-02-10T15:05:24;92765.16;;;-0.07
71807;BMP280;59655;42.590;23.364;2023-02-10T15:07:54;92771.56;;;-0.08
71807;BMP280;59655;42.590;23.364;2023-02-10T15:10:25;92767.31;;;-0.14
71807;BMP280;59655;42.590;23.364;2023-02-10T15:12:52;92769.63;;;-0.16
71807;BMP280;59655;42.590;23.364;2023-02-10T15:15:28;92764.22;;;-0.22
71807;BMP280;59655;42.590;23.364;2023-02-10T15:18:02;92770.44;;;-0.29
71807;BMP280;59655;42.590;23.364;2023-02-10T15:20:31;92771.66;;;-0.33
71807;BMP280;59655;42.590;23.364;2023-02-10T15:27:51;92779.75;;;-0.41
71807;BMP280;59655;42.590;23.364;2023-02-10T15:30:24;92767.50;;;-0.53
71807;BMP280;59655;42.590;23.364;2023-02-10T15:32:52;92772.41;;;-0.55
71807;BMP280;59655;42.590;23.364;2023-02-10T15:35:18;92772.94;;;-0.60
71807;BMP280;59655;42.590;23.364;2023-02-10T15:37:55;92774.53;;;-0.63
71807;BMP280;59655;42.590;23.364;2023-02-10T15:40:27;92783.72;;;-0.71
71807;BMP280;59655;42.590;23.364;2023-02-10T15:43:02;92781.22;;;-0.74
71807;BMP280;59655;42.590;23.364;2023-02-10T15:45:28;92787.06;;;-1.05
71807;BMP280;59655;42.590;23.364;2023-02-10T15:48:05;92783.22;;;-1.13
71807;BMP280;59655;42.590;23.364;2023-02-10T15:50:32;92789.78;;;-1.09